Time;durP1;ratioP1;P1;durP2;ratioP2;P2;SDS_P1;SDS_P2;PMS_P1;PMS_P2;Temp;Humidity;BMP_temperature;BMP_pressure;BME280_temperature;BME280_humidity;BME280_pressure;Samples;Min_cycle;Max_cycle;Signal;HPM_P1;HPM_P2
2023/03/09 00:01:24;;;;;;;10.15;3.40;;;;;;;-2.06;100.00;99248.41;4936230;29;20058;-87
2023/03/09 00:03:51;;;;;;;11.98;3.65;;;;;;;-2.31;100.00;99240.97;4941596;28;20058;-86
2023/03/09 00:06:19;;;;;;;8.07;2.80;;;;;;;-2.16;100.00;99252.81;4940428;28;20051;-86
2023/03/09 00:08:46;;;;;;;11.80;3.58;;;;;;;-2.08;100.00;99219.38;4933692;29;20552;-86
2023/03/09 00:11:15;;;;;;;7.95;2.95;;;;;;;-1.67;100.00;99243.72;4933630;28;20689;-87
2023/03/09 00:13:43;;;;;;;8.95;3.05;;;;;;;-1.60;100.00;99249.63;4933702;28;20066;-85
2023/03/09 00:16:16;;;;;;;10.45;3.25;;;;;;;-1.79;100.00;99198.53;4933161;28;20054;-86
2023/03/09 00:18:43;;;;;;;;;;;;;;;-1.34;100.00;99250.16;4933895;28;20520;-86
2023/03/09 00:21:34;;;;;;;7.32;2.72;;;;;;;-1.69;100.00;99173.59;4932814;29;19930;-86
2023/03/09 00:24:07;;;;;;;8.77;2.80;;;;;;;-1.28;100.00;99251.78;4934499;29;20413;-86
2023/03/09 00:26:36;;;;;;;8.48;2.72;;;;;;;-1.05;100.00;99245.50;4941850;29;20048;-85
2023/03/09 00:29:03;;;;;;;9.48;2.97;;;;;;;-1.42;100.00;99215.19;4933395;28;20060;-86
2023/03/09 00:31:30;;;;;;;9.05;2.63;;;;;;;-1.56;100.00;99197.38;4932447;29;20048;-85
2023/03/09 00:33:57;;;;;;;8.20;2.45;;;;;;;-1.41;100.00;99240.00;4946576;29;20051;-86
2023/03/09 00:36:24;;;;;;;6.57;2.63;;;;;;;-1.31;100.00;99256.13;4933932;29;20058;-86
2023/03/09 00:38:52;;;;;;;7.25;2.45;;;;;;;-1.35;100.00;99260.44;4944634;29;20052;-86
2023/03/09 00:41:20;;;;;;;6.45;2.22;;;;;;;-1.40;100.00;99236.53;4927105;28;20681;-86
2023/03/09 00:43:47;;;;;;;7.80;2.85;;;;;;;-1.92;100.00;99176.44;4931488;29;20062;-87
2023/03/09 00:46:15;;;;;;;12.23;3.42;;;;;;;-1.93;100.00;99195.25;4932113;28;20577;-86
2023/03/09 00:48:42;;;;;;;7.80;2.72;;;;;;;-1.69;100.00;99249.75;4944572;29;20150;-87
2023/03/09 00:51:10;;;;;;;8.55;2.72;;;;;;;-1.67;100.00;99242.88;4931565;29;20497;-87
2023/03/09 00:53:38;;;;;;;6.63;2.28;;;;;;;-1.72;100.00;99241.22;4935763;29;20083;-87
2023/03/09 00:56:08;;;;;;;6.47;2.45;;;;;;;-1.74;100.00;99252.34;4933620;29;20482;-87
2023/03/09 00:58:35;;;;;;;5.70;2.25;;;;;;;-1.80;100.00;99242.19;4947357;28;20075;-87
2023/03/09 01:01:09;;;;;;;6.65;2.40;;;;;;;-2.21;100.00;99176.75;4934194;29;20055;-87
2023/03/09 01:03:37;;;;;;;7.00;2.20;;;;;;;-2.26;100.00;99176.84;4934115;29;20091;-87
2023/03/09 01:06:16;;;;;;;6.38;2.28;;;;;;;-1.85;100.00;99247.34;4932242;28;20055;-88
2023/03/09 01:08:45;;;;;;;7.03;2.30;;;;;;;-1.99;100.00;99234.66;4937238;29;20063;-87
2023/03/09 01:11:14;;;;;;;7.65;2.15;;;;;;;-2.39;100.00;99199.19;4931413;28;20051;-86
2023/03/09 01:13:42;;;;;;;6.53;2.20;;;;;;;-2.07;100.00;99236.47;4930405;28;20047;-87
2023/03/09 01:18:48;;;;;;;5.97;2.15;;;;;;;-2.55;100.00;99205.28;4932542;28;20071;-87
2023/03/09 01:21:19;;;;;;;6.80;2.50;;;;;;;-2.49;100.00;99210.38;4932982;29;20074;-87
2023/03/09 01:23:46;;;;;;;6.63;2.40;;;;;;;-2.55;100.00;99187.34;4933989;29;20744;-87
2023/03/09 01:26:13;;;;;;;5.53;2.03;;;;;;;-2.30;100.00;99239.25;4931742;29;20493;-87
2023/03/09 01:28:40;;;;;;;7.10;2.28;;;;;;;-2.62;100.00;99191.72;4931765;29;20059;-87
2023/03/09 01:31:10;;;;;;;6.57;2.10;;;;;;;-2.74;100.00;99194.38;4938619;28;20498;-87
2023/03/09 01:33:37;;;;;;;6.70;2.50;;;;;;;-2.55;100.00;99228.34;4927359;29;20068;-87
2023/03/09 01:36:08;;;;;;;11.82;2.75;;;;;;;-2.54;100.00;99232.63;4929994;29;20059;-89
2023/03/09 01:38:35;;;;;;;5.88;1.80;;;;;;;-2.83;100.00;99186.75;4932764;29;20134;-87
2023/03/09 01:41:03;;;;;;;8.10;2.70;;;;;;;-2.53;100.00;99239.47;4926337;28;20415;-88
2023/03/09 01:43:34;;;;;;;7.93;2.50;;;;;;;-2.63;100.00;99243.81;4944888;29;20047;-89
2023/03/09 01:46:19;;;;;;;5.72;1.98;;;;;;;-2.63;100.00;99248.09;4932300;28;20065;-88
2023/03/09 01:48:49;;;;;;;8.82;2.72;;;;;;;-3.05;100.00;99204.84;4932569;28;20510;-87
2023/03/09 01:51:18;;;;;;;5.28;2.22;;;;;;;-3.06;100.00;99215.97;4923521;29;20495;-87
2023/03/09 01:53:47;;;;;;;6.97;2.40;;;;;;;-2.69;100.00;99241.31;4933419;28;20055;-87
2023/03/09 01:56:18;;;;;;;8.52;2.75;;;;;;;-2.50;100.00;99252.25;4932495;29;20508;-87
2023/03/09 01:58:48;;;;;;;4.75;2.03;;;;;;;-3.10;100.00;99163.03;4928209;29;20557;-87
2023/03/09 02:01:16;;;;;;;6.63;2.42;;;;;;;-2.77;100.00;99217.44;4931451;29;20059;-87
2023/03/09 02:03:46;;;;;;;5.38;2.08;;;;;;;-2.52;100.00;99241.16;4933280;29;20080;-87
2023/03/09 02:06:17;;;;;;;6.18;1.98;;;;;;;-2.75;100.00;99193.50;4933502;28;20056;-88
2023/03/09 02:09:30;;;;;;;5.93;1.70;;;;;;;-2.52;100.00;99231.75;4931348;29;20051;-88
2023/03/09 02:11:58;;;;;;;7.32;2.95;;;;;;;-2.72;100.00;99246.44;4916672;29;20040;-88
2023/03/09 02:14:25;;;;;;;9.18;2.47;;;;;;;-2.96;100.00;99224.41;4932858;29;20063;-88
2023/03/09 02:16:52;;;;;;;8.13;2.28;;;;;;;-3.08;100.00;99236.44;4931873;29;20057;-88
2023/03/09 02:19:59;;;;;;;7.20;2.35;;;;;;;-3.22;100.00;99206.66;4931792;28;20051;-88
2023/03/09 02:22:26;;;;;;;8.27;3.03;;;;;;;-3.27;100.00;99199.03;4953180;28;20047;-88
2023/03/09 02:25:23;;;;;;;5.13;2.00;;;;;;;-3.13;100.00;99204.91;4931630;28;20051;-88
2023/03/09 02:27:52;;;;;;;5.57;2.03;;;;;;;-2.91;100.00;99209.88;4922599;28;20054;-87
2023/03/09 02:30:19;;;;;;;3.95;1.90;;;;;;;-3.22;100.00;99152.88;4934045;29;20052;-87
2023/03/09 02:32:46;;;;;;;7.97;2.30;;;;;;;-3.00;100.00;99208.22;4932074;28;20055;-87
2023/03/09 02:35:13;;;;;;;5.47;1.60;;;;;;;-3.27;100.00;99158.06;4932658;29;20401;-87
2023/03/09 02:37:40;;;;;;;5.25;2.00;;;;;;;-2.76;100.00;99240.50;4932589;29;20055;-88
2023/03/09 02:40:15;;;;;;;7.05;2.10;;;;;;;-3.18;100.00;99183.59;4930544;29;20051;-89
2023/03/09 02:42:45;;;;;;;6.45;2.05;;;;;;;-2.76;100.00;99227.69;4930453;28;20048;-88
2023/03/09 02:45:15;;;;;;;4.55;1.92;;;;;;;-3.09;100.00;99164.75;4932610;28;20399;-89
2023/03/09 02:47:42;;;;;;;9.63;1.83;;;;;;;-2.94;100.00;99209.88;4931706;28;20056;-88
2023/03/09 02:50:09;;;;;;;6.70;2.15;;;;;;;-2.88;100.00;99192.75;4934795;28;20063;-88
2023/03/09 02:55:48;;;;;;;5.35;1.67;;;;;;;-2.99;100.00;99191.13;4935244;28;20062;-88
2023/03/09 02:58:20;;;;;;;3.15;1.58;;;;;;;-2.90;100.00;99194.50;4943874;28;20429;-88
2023/03/09 03:00:47;;;;;;;3.70;1.60;;;;;;;-2.89;100.00;99193.59;4931676;29;20058;-88
2023/03/09 03:03:14;;;;;;;3.97;1.38;;;;;;;-2.45;100.00;99255.63;4938652;28;20058;-88
2023/03/09 03:05:40;;;;;;;7.03;1.90;;;;;;;-3.00;100.00;99156.16;4960625;28;20051;-88
2023/03/09 03:08:07;;;;;;;4.68;2.30;;;;;;;-2.51;100.00;99230.06;4931429;29;20067;-88
2023/03/09 03:10:34;;;;;;;4.68;1.70;;;;;;;-2.72;100.00;99167.88;4925287;29;20051;-88
2023/03/09 03:13:01;;;;;;;7.45;1.92;;;;;;;-2.95;100.00;99180.03;4924026;29;20540;-88
2023/03/09 03:15:28;;;;;;;7.82;2.85;;;;;;;-2.99;100.00;99196.25;4928508;28;20060;-89
2023/03/09 03:17:54;;;;;;;5.45;1.95;;;;;;;-3.32;100.00;99181.13;4930432;29;20058;-88
2023/03/09 03:20:21;;;;;;;5.97;2.00;;;;;;;-3.16;100.00;99204.06;4930109;29;20065;-88
2023/03/09 03:22:48;;;;;;;8.43;2.03;;;;;;;-3.01;100.00;99229.59;4933508;28;20077;-88
2023/03/09 03:25:16;;;;;;;5.47;2.15;;;;;;;-3.33;100.00;99178.56;4941239;28;20060;-88
2023/03/09 03:27:44;;;;;;;8.13;2.35;;;;;;;-3.32;100.00;99170.03;4919493;28;20060;-88
2023/03/09 03:30:12;;;;;;;4.78;1.70;;;;;;;-2.89;100.00;99215.81;4931494;29;20440;-89
2023/03/09 03:32:38;;;;;;;4.82;1.67;;;;;;;-3.20;100.00;99164.84;4931005;29;20052;-89
2023/03/09 03:35:06;;;;;;;6.40;2.28;;;;;;;-2.75;100.00;99231.09;4935226;29;20147;-89
2023/03/09 03:37:33;;;;;;;6.05;1.83;;;;;;;-3.10;100.00;99188.66;4931227;28;20671;-89
2023/03/09 03:39:59;;;;;;;5.07;1.90;;;;;;;-3.20;100.00;99175.06;4931900;29;20051;-89
2023/03/09 03:42:26;;;;;;;6.43;2.00;;;;;;;-3.16;100.00;99189.53;4946551;29;20055;-89
2023/03/09 03:44:53;;;;;;;5.18;2.00;;;;;;;-3.11;100.00;99210.00;4931090;28;20048;-89
2023/03/09 03:47:20;;;;;;;6.35;1.90;;;;;;;-3.16;100.00;99199.78;4937929;28;20406;-89
2023/03/09 03:49:46;;;;;;;5.68;1.80;;;;;;;-3.12;100.00;99208.28;4931427;28;20067;-88
2023/03/09 03:52:13;;;;;;;6.75;1.90;;;;;;;-2.76;100.00;99245.63;4926446;29;20470;-88
2023/03/09 03:54:40;;;;;;;9.10;1.90;;;;;;;-2.91;100.00;99217.53;4935496;29;20063;-88
2023/03/09 03:57:06;;;;;;;6.22;1.95;;;;;;;-3.24;100.00;99183.63;4937729;28;20056;-89
2023/03/09 03:59:35;;;;;;;6.30;1.83;;;;;;;-3.27;100.00;99184.50;4932279;29;20143;-88
2023/03/09 04:02:02;;;;;;;6.38;2.00;;;;;;;-3.30;100.00;99179.38;4931266;29;20056;-88
2023/03/09 04:04:28;;;;;;;6.28;2.05;;;;;;;-3.33;100.00;99186.25;4947227;28;20051;-89
2023/03/09 04:06:55;;;;;;;6.93;2.25;;;;;;;-3.34;100.00;99203.31;4935102;29;20055;-88
2023/03/09 04:09:22;;;;;;;6.22;2.05;;;;;;;-3.33;100.00;99247.66;4933432;29;20062;-89
2023/03/09 04:11:49;;;;;;;11.30;2.60;;;;;;;-3.23;100.00;99258.72;4932359;29;20078;-88
2023/03/09 04:14:16;;;;;;;3.83;1.58;;;;;;;-3.45;100.00;99217.88;4932824;28;20102;-89
2023/03/09 04:16:43;;;;;;;4.90;1.80;;;;;;;-3.57;100.00;99240.97;4933897;29;20142;-89
2023/03/09 04:19:10;;;;;;;5.38;2.05;;;;;;;-3.35;100.00;99278.38;4932801;29;20043;-89
2023/03/09 04:21:36;;;;;;;4.68;1.60;;;;;;;-3.31;100.00;99258.75;4932953;28;20055;-89
2023/03/09 04:24:03;;;;;;;2.65;1.50;;;;;;;-3.34;100.00;99234.03;4941602;29;20099;-89
2023/03/09 04:26:30;;;;;;;6.40;2.03;;;;;;;-3.50;100.00;99234.97;4932998;29;20058;-89
2023/03/09 04:28:57;;;;;;;6.05;2.35;;;;;;;-3.75;100.00;99235.06;4932399;29;20058;-88
2023/03/09 04:31:24;;;;;;;7.68;2.10;;;;;;;-3.82;100.00;99236.78;4933702;29;20102;-89
2023/03/09 04:33:51;;;;;;;6.57;2.15;;;;;;;-3.75;100.00;99247.00;4934021;28;20055;-88
2023/03/09 04:36:17;;;;;;;8.38;2.25;;;;;;;-3.69;100.00;99282.78;4934649;29;20055;-88
2023/03/09 04:38:44;;;;;;;4.13;1.60;;;;;;;-3.69;100.00;99242.72;4932978;29;20056;-89
2023/03/09 04:41:11;;;;;;;3.70;1.75;;;;;;;-3.45;100.00;99241.75;4925744;29;20056;-90
2023/03/09 04:43:38;;;;;;;5.05;1.55;;;;;;;-3.50;100.00;99248.59;4933126;29;20052;-88
2023/03/09 04:46:05;;;;;;;6.63;1.67;;;;;;;-3.65;100.00;99226.50;4933629;29;20468;-89
2023/03/09 04:48:32;;;;;;;3.90;1.50;;;;;;;-3.45;100.00;99251.16;4939693;29;20130;-89
2023/03/09 04:50:59;;;;;;;4.47;1.45;;;;;;;-3.60;100.00;99208.56;4939244;28;20052;-89
2023/03/09 04:53:25;;;;;;;6.85;1.80;;;;;;;-3.44;100.00;99237.50;4932764;29;20058;-89
2023/03/09 04:55:52;;;;;;;3.00;1.50;;;;;;;-3.53;100.00;99210.22;4931585;29;20052;-88
2023/03/09 04:58:19;;;;;;;6.05;1.75;;;;;;;-3.49;100.00;99249.44;4934057;29;20102;-89
2023/03/09 05:00:46;;;;;;;4.85;1.60;;;;;;;-3.36;100.00;99268.19;4925568;29;20056;-89
2023/03/09 05:03:13;;;;;;;4.63;1.65;;;;;;;-3.79;100.00;99222.28;4941960;29;20051;-89
2023/03/09 05:05:40;;;;;;;5.22;1.50;;;;;;;-3.79;100.00;99209.50;4932706;29;20047;-89
2023/03/09 05:08:07;;;;;;;5.97;1.52;;;;;;;-3.56;100.00;99233.31;4932852;29;20442;-90
2023/03/09 05:10:34;;;;;;;4.18;1.70;;;;;;;-3.36;100.00;99263.91;4927382;28;20379;-88
2023/03/09 05:13:01;;;;;;;3.25;1.63;;;;;;;-3.13;100.00;99280.88;4924185;29;20048;-89
2023/03/09 05:15:28;;;;;;;4.68;1.60;;;;;;;-3.50;100.00;99230.69;4931905;28;20101;-88
2023/03/09 05:17:55;;;;;;;4.78;1.85;;;;;;;-3.59;100.00;99225.63;4932404;29;20498;-89
2023/03/09 05:20:23;;;;;;;5.63;1.88;;;;;;;-3.73;100.00;99220.56;4931200;29;20051;-87
2023/03/09 05:22:54;;;;;;;4.15;1.65;;;;;;;-3.68;100.00;99241.03;4933398;28;20466;-89
2023/03/09 05:25:22;;;;;;;3.40;1.58;;;;;;;-3.54;100.00;99269.09;4932230;29;20053;-89
2023/03/09 05:27:49;;;;;;;5.18;1.77;;;;;;;-3.66;100.00;99260.59;4931946;29;20106;-89
2023/03/09 05:30:17;;;;;;;4.70;1.63;;;;;;;-3.82;100.00;99218.06;4931612;29;20409;-89
2023/03/09 05:32:44;;;;;;;4.97;1.60;;;;;;;-3.95;100.00;99185.69;4932211;28;20055;-89
2023/03/09 05:35:10;;;;;;;3.53;1.55;;;;;;;-4.04;100.00;99195.13;4936300;29;20510;-88
2023/03/09 05:37:37;;;;;;;3.22;1.60;;;;;;;-3.84;100.00;99255.56;4931941;29;20401;-88
2023/03/09 05:40:05;;;;;;;4.80;1.67;;;;;;;-3.95;100.00;99227.44;4933144;29;20056;-88
2023/03/09 05:42:32;;;;;;;2.00;1.27;;;;;;;-3.77;100.00;99248.72;4930175;29;20052;-88
2023/03/09 05:45:00;;;;;;;3.70;1.50;;;;;;;-4.13;100.00;99172.09;4937087;29;20055;-89
2023/03/09 05:47:26;;;;;;;4.47;1.73;;;;;;;-3.80;100.00;99248.75;4931915;29;20052;-88
2023/03/09 05:49:53;;;;;;;1.80;1.20;;;;;;;-3.94;100.00;99218.94;4920378;29;20047;-88
2023/03/09 05:52:20;;;;;;;2.75;1.20;;;;;;;-4.12;100.00;99224.94;4931538;28;20055;-88
2023/03/09 05:54:47;;;;;;;6.05;1.65;;;;;;;-4.18;100.00;99196.00;4931896;29;20523;-88
2023/03/09 05:57:14;;;;;;;3.75;1.40;;;;;;;-3.47;100.00;99276.75;4932303;28;20055;-88
2023/03/09 05:59:41;;;;;;;3.25;1.45;;;;;;;-3.46;100.00;99286.13;4931533;29;20051;-88
2023/03/09 06:02:08;;;;;;;3.05;1.40;;;;;;;-3.86;100.00;99217.22;4931413;28;20054;-86
2023/03/09 06:04:35;;;;;;;2.13;1.20;;;;;;;-3.57;100.00;99256.31;4931725;29;20460;-86
2023/03/09 06:07:02;;;;;;;3.42;1.55;;;;;;;-3.80;100.00;99226.56;4936129;29;20428;-86
2023/03/09 06:09:29;;;;;;;3.33;1.60;;;;;;;-3.62;100.00;99249.50;4940042;28;20055;-88
2023/03/09 06:11:56;;;;;;;3.80;1.60;;;;;;;-3.53;100.00;99266.53;4929218;29;20517;-86
2023/03/09 06:14:23;;;;;;;6.75;1.90;;;;;;;-3.49;100.00;99280.16;4932258;29;20047;-87
2023/03/09 06:16:49;;;;;;;3.60;1.65;;;;;;;-3.90;100.00;99235.94;4930869;29;20058;-88
2023/03/09 06:19:16;;;;;;;4.57;1.60;;;;;;;-4.25;100.00;99195.16;4931653;28;20052;-87
2023/03/09 06:21:43;;;;;;;5.35;1.90;;;;;;;-3.80;100.00;99285.38;4933958;28;20511;-87
2023/03/09 06:24:10;;;;;;;4.57;1.75;;;;;;;-4.39;100.00;99220.75;4930692;29;20055;-86
2023/03/09 06:26:36;;;;;;;6.35;2.03;;;;;;;-4.25;100.00;99254.81;4938789;29;20489;-88
2023/03/09 06:29:03;;;;;;;3.97;1.58;;;;;;;-4.40;100.00;99231.81;4940717;29;20051;-87
2023/03/09 06:31:31;;;;;;;5.13;2.25;;;;;;;-4.40;100.00;99231.81;4932563;28;20039;-88
2023/03/09 06:33:58;;;;;;;6.78;1.90;;;;;;;-4.29;100.00;99267.56;4941038;29;20134;-89
2023/03/09 06:36:25;;;;;;;3.70;1.70;;;;;;;-4.69;100.00;99229.25;4932710;29;20497;-87
2023/03/09 06:38:52;;;;;;;3.55;1.70;;;;;;;-4.72;100.00;99239.50;4928723;29;20082;-87
2023/03/09 06:41:29;;;;;;;5.50;1.70;;;;;;;-4.67;100.00;99238.63;4938563;28;20572;-86
2023/03/09 06:43:55;;;;;;;3.97;1.90;;;;;;;-4.36;100.00;99261.59;4937248;28;20409;-87
2023/03/09 06:46:22;;;;;;;3.88;1.42;;;;;;;-4.43;100.00;99253.09;4937668;29;20503;-88
2023/03/09 06:48:49;;;;;;;2.95;1.50;;;;;;;-3.96;100.00;99292.25;4926374;28;20048;-88
2023/03/09 06:51:17;;;;;;;3.75;1.60;;;;;;;-3.88;100.00;99320.34;4937063;29;20051;-87
2023/03/09 06:53:44;;;;;;;3.75;1.50;;;;;;;-4.22;100.00;99249.66;4945590;28;20055;-88
2023/03/09 06:56:11;;;;;;;3.13;1.45;;;;;;;-4.02;100.00;99253.88;4939597;28;20054;-89
2023/03/09 06:58:39;;;;;;;4.68;1.52;;;;;;;-3.56;100.00;99320.28;4932713;29;20056;-89
2023/03/09 07:01:11;;;;;;;3.20;1.55;;;;;;;-3.96;100.00;99255.59;4929127;29;20059;-88
2023/03/09 07:03:39;;;;;;;4.07;2.03;;;;;;;-3.46;100.00;99329.63;4934222;29;20454;-88
2023/03/09 07:06:06;;;;;;;4.90;1.50;;;;;;;-3.69;100.00;99285.34;4939072;28;20105;-88
2023/03/09 07:08:33;;;;;;;3.15;1.45;;;;;;;-3.89;100.00;99254.72;4937468;28;20420;-88
2023/03/09 07:11:00;;;;;;;9.20;1.73;;;;;;;-3.65;100.00;99298.16;4936550;28;20059;-88
2023/03/09 07:13:28;;;;;;;5.47;3.80;;;;;;;-3.49;100.00;99303.19;4938970;29;20056;-88
2023/03/09 07:15:56;;;;;;;4.88;1.70;;;;;;;-3.84;100.00;99251.28;4936406;29;20052;-87
2023/03/09 07:18:23;;;;;;;5.25;1.80;;;;;;;-3.81;100.00;99255.53;4942290;29;20409;-88
2023/03/09 07:20:50;;;;;;;3.42;1.50;;;;;;;-3.61;100.00;99286.19;4941272;29;20048;-88
2023/03/09 07:23:26;;;;;;;2.35;1.50;;;;;;;-3.34;100.00;99295.47;4942766;28;20051;-87
2023/03/09 07:25:53;;;;;;;5.25;1.70;;;;;;;-3.21;100.00;99295.41;4934152;28;20052;-87
2023/03/09 07:28:19;;;;;;;6.38;2.05;;;;;;;-3.32;100.00;99303.97;4943157;29;20062;-88
2023/03/09 07:30:46;;;;;;;4.90;1.50;;;;;;;-3.34;100.00;99295.47;4935570;28;20063;-88
2023/03/09 07:33:13;;;;;;;3.95;1.63;;;;;;;-3.35;100.00;99296.31;4925496;29;20048;-89
2023/03/09 07:35:41;;;;;;;6.40;1.83;;;;;;;-3.36;100.00;99316.81;4946207;29;20052;-86
2023/03/09 07:38:08;;;;;;;9.85;2.35;;;;;;;-3.56;100.00;99289.59;4933461;29;20048;-86
2023/03/09 07:40:35;;;;;;;6.95;2.45;;;;;;;-2.99;100.00;99339.66;4929259;29;20150;-87
2023/03/09 07:43:02;;;;;;;7.82;2.35;;;;;;;-1.98;100.00;99315.91;4934926;29;20074;-87
2023/03/09 07:45:29;;;;;;;8.55;2.05;;;;;;;-1.46;100.00;99278.56;4933675;29;20063;-87
2023/03/09 07:47:56;;;;;;;6.90;2.45;;;;;;;-0.98;100.00;99291.63;4933596;29;20060;-85
2023/03/09 07:50:23;;;;;;;8.25;2.00;;;;;;;-0.72;100.00;99299.84;4938667;29;20060;-85
2023/03/09 07:52:50;;;;;;;6.03;2.08;;;;;;;-0.61;100.00;99311.66;4933237;29;20052;-86
2023/03/09 07:55:18;;;;;;;3.63;1.45;;;;;;;0.49;100.00;99357.00;4932794;29;20044;-85
2023/03/09 07:57:45;;;;;;;5.88;1.90;;;;;;;0.63;100.00;99331.00;4934730;29;20059;-85
2023/03/09 08:00:13;;;;;;;3.25;1.30;;;;;;;0.92;100.00;99322.69;4934184;28;20058;-85
2023/03/09 08:02:40;;;;;;;5.20;1.80;;;;;;;1.30;100.00;99338.22;4934462;28;20097;-86
2023/03/09 08:05:10;;;;;;;4.22;1.60;;;;;;;0.87;100.00;99319.34;4935703;28;20449;-85
2023/03/09 08:07:37;;;;;;;6.53;2.03;;;;;;;1.66;100.00;99362.31;4916497;29;20060;-88
2023/03/09 08:10:04;;;;;;;3.00;1.30;;;;;;;1.78;100.00;99324.22;4927249;29;20052;-88
2023/03/09 08:12:31;;;;;;;3.78;1.30;;;;;;;1.15;100.00;99290.38;4921229;29;20406;-87
2023/03/09 08:14:58;;;;;;;3.65;1.58;;;;;;;1.48;100.00;99311.16;4933848;29;20429;-87
2023/03/09 08:17:25;;;;;;;4.10;1.80;;;;;;;1.88;100.00;99330.84;4932801;28;20059;-88
2023/03/09 08:19:52;;;;;;;5.38;1.42;;;;;;;1.70;100.00;99311.50;4933173;29;20067;-87
2023/03/09 08:22:19;;;;;;;4.57;1.50;;;;;;;1.61;100.00;99306.53;4935732;29;20047;-88
2023/03/09 08:24:46;;;;;;;5.80;1.92;;;;;;;1.45;100.00;99314.66;4940168;29;20059;-86
2023/03/09 08:27:12;;;;;;;5.30;1.50;;;;;;;1.04;100.00;99316.41;4933343;29;20058;-87
2023/03/09 08:29:39;;;;;;;4.07;1.63;;;;;;;1.19;100.00;99345.31;4932851;28;20059;-86
2023/03/09 08:32:08;;;;;;;4.05;1.70;;;;;;;0.88;100.00;99318.47;4934202;28;20055;-86
2023/03/09 08:34:38;;;;;;;6.10;1.88;;;;;;;0.84;100.00;99341.75;4938669;28;20562;-87
2023/03/09 08:37:05;;;;;;;5.00;1.67;;;;;;;0.53;100.00;99320.03;4939968;28;20051;-87
2023/03/09 08:39:31;;;;;;;6.43;2.05;;;;;;;0.92;100.00;99332.13;4943646;29;20055;-86
2023/03/09 08:41:58;;;;;;;4.22;1.58;;;;;;;0.69;100.00;99292.25;4938422;28;20085;-87
2023/03/09 08:44:25;;;;;;;4.90;1.42;;;;;;;1.33;100.00;99313.19;4945377;29;20073;-86
2023/03/09 08:46:52;;;;;;;6.95;2.00;;;;;;;1.84;100.00;99313.72;4932858;29;20060;-87
2023/03/09 08:49:19;;;;;;;3.70;1.40;;;;;;;2.55;100.00;99363.56;4943018;28;20535;-87
2023/03/09 08:51:45;;;;;;;5.45;1.75;;;;;;;2.54;100.00;99286.97;4929086;28;20051;-86
2023/03/09 08:54:12;;;;;;;4.50;1.80;;;;;;;2.81;100.00;99309.41;4934673;29;20059;-87
2023/03/09 08:56:39;;;;;;;7.63;1.92;;;;;;;2.33;100.00;99304.72;4940774;28;20055;-87
2023/03/09 08:59:06;;;;;;;7.88;2.15;;;;;;;1.85;100.00;99294.78;4937586;28;20054;-85
2023/03/09 09:01:33;;;;;;;8.40;1.92;;;;;;;2.42;100.00;99363.06;4933348;29;20052;-88
2023/03/09 09:04:00;;;;;;;7.57;2.00;;;;;;;2.40;100.00;99326.09;4932805;29;20052;-88
2023/03/09 09:06:28;;;;;;;11.13;6.63;;;;;;;2.43;100.00;99285.50;4931704;28;20493;-87
2023/03/09 09:08:55;;;;;;;7.00;3.47;;;;;;;2.59;100.00;99318.69;4932546;28;20056;-86
2023/03/09 09:11:22;;;;;;;4.75;2.20;;;;;;;2.36;100.00;99308.97;4920583;29;20060;-85
2023/03/09 09:13:51;;;;;;;4.93;2.00;;;;;;;2.30;100.00;99286.72;4928772;29;20052;-86
2023/03/09 09:16:18;;;;;;;5.45;1.98;;;;;;;2.24;100.00;99282.56;4932934;28;20055;-86
2023/03/09 09:18:46;;;;;;;5.88;2.10;;;;;;;2.19;100.00;99367.06;5014955;28;20186;-86
2023/03/09 09:21:15;;;;;;;10.02;2.80;;;;;;;1.84;100.00;99349.88;4932033;29;20055;-86
2023/03/09 09:23:43;;;;;;;7.28;2.03;;;;;;;1.56;100.00;99308.38;4936984;29;20252;-85
2023/03/09 09:26:11;;;;;;;5.88;1.88;;;;;;;2.21;100.00;99342.06;4933489;29;20102;-86
2023/03/09 09:28:39;;;;;;;5.57;1.60;;;;;;;2.24;100.00;99304.97;4932635;29;20063;-85
2023/03/09 09:31:07;;;;;;;4.95;1.80;;;;;;;2.92;100.00;99393.59;4924459;29;20052;-86
2023/03/09 09:33:34;;;;;;;3.55;1.60;;;;;;;2.55;100.00;99368.72;4925700;28;20048;-85
2023/03/09 09:36:02;;;;;;;4.20;1.52;;;;;;;2.14;100.00;99380.97;4931442;29;20126;-85
2023/03/09 09:38:30;;;;;;;11.07;1.65;;;;;;;2.54;100.00;99352.41;4933616;29;20059;-85
2023/03/09 09:41:06;;;;;;;8.73;2.80;;;;;;;2.76;100.00;99380.22;4931622;29;20058;-85
2023/03/09 09:43:34;;;;;;;4.38;1.42;;;;;;;2.60;100.00;99367.75;4931974;28;20109;-86
2023/03/09 09:46:02;;;;;;;6.57;1.63;;;;;;;2.88;100.00;99397.16;4931530;28;20063;-85
2023/03/09 09:48:30;;;;;;;4.13;1.58;;;;;;;2.68;100.00;99352.03;4931913;29;20134;-85
2023/03/09 09:51:22;;;;;;;5.70;1.55;;;;;;;2.87;100.00;99396.31;4946205;28;20055;-85
2023/03/09 09:53:55;;;;;;;3.83;1.60;;;;;;;2.42;100.00;99337.22;4940244;28;20393;-84
2023/03/09 09:56:28;;;;;;;4.00;1.70;;;;;;;2.71;100.00;99374.34;4934769;28;20414;-85
2023/03/09 09:59:03;;;;;;;4.68;1.70;;;;;;;2.73;100.00;99370.84;4954684;28;20056;-86
2023/03/09 10:01:47;;;;;;;5.55;1.58;;;;;;;2.65;100.00;99349.50;4929811;29;20051;-85
2023/03/09 10:04:56;;;;;;;3.17;1.25;;;;;;;2.63;100.00;99341.78;4938493;28;20044;-85
2023/03/09 10:07:28;;;;;;;;;;;;;;;2.58;100.00;99390.16;4955142;28;20047;-84
2023/03/09 10:10:01;;;;;;;5.10;1.40;;;;;;;2.39;100.00;99348.50;4934032;28;19930;-86
2023/03/09 10:12:27;;;;;;;3.65;1.50;;;;;;;2.40;100.00;99336.41;4921080;28;20052;-86
2023/03/09 10:15:23;;;;;;;3.60;1.40;;;;;;;2.61;100.00;99360.84;4932965;29;20126;-86
2023/03/09 10:18:13;;;;;;;4.63;1.30;;;;;;;3.09;100.00;99370.69;4917663;28;20056;-85
2023/03/09 10:20:49;;;;;;;4.90;1.38;;;;;;;2.95;100.00;99344.38;4929837;29;20052;-85
2023/03/09 10:23:26;;;;;;;5.05;1.45;;;;;;;3.30;100.00;99368.38;4935363;28;20493;-86
2023/03/09 10:26:01;;;;;;;7.22;2.10;;;;;;;3.42;100.00;99384.38;4931812;28;20079;-87
2023/03/09 10:28:34;;;;;;;4.65;1.80;;;;;;;3.42;100.00;99352.50;4932007;29;20705;-86
2023/03/09 10:31:13;;;;;;;2.85;1.40;;;;;;;3.29;100.00;99318.34;4929846;28;20056;-86
2023/03/09 10:33:45;;;;;;;4.90;1.83;;;;;;;3.76;100.00;99366.97;4931863;29;20457;-85
2023/03/09 10:36:16;;;;;;;4.28;1.60;;;;;;;3.55;100.00;99317.56;4934954;28;20052;-87
2023/03/09 10:38:43;;;;;;;2.78;1.33;;;;;;;3.86;100.00;99345.06;5014830;28;20056;-86
2023/03/09 10:41:19;;;;;;;4.47;1.73;;;;;;;3.61;100.00;99313.94;4931840;28;20078;-86
2023/03/09 10:43:46;;;;;;;4.95;1.67;;;;;;;3.86;100.00;99326.09;5014636;28;20058;-86
2023/03/09 10:46:16;;;;;;;8.63;2.95;;;;;;;4.30;100.00;99391.13;4931841;29;20068;-85
2023/03/09 10:48:44;;;;;;;4.15;1.48;;;;;;;3.95;100.00;99318.03;4947740;29;20529;-86
2023/03/09 10:51:25;;;;;;;6.05;1.77;;;;;;;4.08;100.00;99354.72;4927492;29;20444;-87
2023/03/09 10:53:54;;;;;;;4.35;1.85;;;;;;;3.98;100.00;99342.09;4932628;29;20051;-87
2023/03/09 10:56:23;;;;;;;6.15;1.75;;;;;;;3.59;100.00;99364.91;4932476;28;20058;-86
2023/03/09 10:59:11;;;;;;;12.82;1.98;;;;;;;3.68;100.00;99397.41;4932245;29;20417;-86
2023/03/09 11:01:43;;;;;;;7.78;2.53;;;;;;;3.51;100.00;99325.50;4934214;28;20066;-87
2023/03/09 11:04:23;;;;;;;6.93;1.60;;;;;;;4.16;100.00;99400.22;4935163;29;20097;-87
2023/03/09 11:06:57;;;;;;;24.58;2.78;;;;;;;4.36;100.00;99385.75;4923278;29;20062;-87
2023/03/09 11:09:33;;;;;;;13.90;1.90;;;;;;;4.47;100.00;99409.53;4934900;29;20059;-87
2023/03/09 11:12:20;;;;;;;10.23;2.03;;;;;;;3.51;100.00;99323.75;4922755;29;20063;-87
2023/03/09 11:14:59;;;;;;;4.63;1.67;;;;;;;3.70;100.00;99342.13;4936099;29;20051;-88
2023/03/09 11:17:32;;;;;;;13.32;2.30;;;;;;;4.24;100.00;99402.53;4934991;29;20058;-87
2023/03/09 11:20:18;;;;;;;7.20;2.15;;;;;;;4.21;100.00;99401.78;4936010;29;20051;-87
2023/03/09 11:23:12;;;;;;;5.85;1.80;;;;;;;4.58;100.00;99409.19;4924362;29;20047;-87
2023/03/09 11:26:03;;;;;;;13.32;2.40;;;;;;;4.22;100.00;99396.56;4916349;28;20052;-87
2023/03/09 11:28:49;;;;;;;14.70;2.17;;;;;;;4.04;100.00;99358.28;4916307;28;20483;-88
2023/03/09 11:31:18;;;;;;;6.97;1.77;;;;;;;4.14;100.00;99396.81;4925215;28;20055;-87
2023/03/09 11:33:47;;;;;;;10.52;2.60;;;;;;;3.73;100.00;99343.75;4934786;29;20056;-87
2023/03/09 11:36:22;;;;;;;8.68;2.22;;;;;;;3.54;100.00;99396.13;4934846;28;20130;-88
2023/03/09 11:38:50;;;;;;;5.28;1.50;;;;;;;4.01;100.00;99394.69;4935101;28;20138;-88
2023/03/09 11:41:41;;;;;;;10.10;1.95;;;;;;;4.07;100.00;99387.56;4935284;28;20051;-87
2023/03/09 11:44:48;;;;;;;9.82;2.00;;;;;;;4.14;100.00;99383.00;4936279;29;20059;-87